Tiempo atmosférico en la estación meteorológica de Benamejí, Córdoba (465 m.)



Fecha
DESCASC
Temp. máxima en grados centígrados (hora)
DESCASC
Temp. mínima en grados centígrados (hora)
DESCASC
Temp. media en grados centígrados
DESCASC
Racha de viento máxima en m/sg (hora)
DESCASC
Velocidad máxima media en intervalos de 10 minutos(hora)
DESCASC
Precipitaciones diarias en mm
DESCASC
Precipitaciones de 00:00 a 06:00 en mm
DESCASC
Precipitaciones de 06:00 a 12:00 en mm
DESCASC
Precipitaciones de 12:00 a 18:00 en mm
DESCASC
Precipitaciones de 18:00 a 24:00 en mm
DESCASC
20-10-2019 17.1 (00:00) 10.2 (09:00) 13.7 10.56 (01:10) 7.22 (01:10) 9.8 9.8 0 0 0
19-10-2019 23.3 (14:50) 14.4 (08:20) 18.8 11.67 (18:20) 8.06 (18:30) 0.4 0 0 0 0.4
18-10-2019 24.9 (16:20) 11.5 (08:50) 18.2 5.83 (15:50) 3.61 (15:50) 0 0 0 0 0
17-10-2019 23.3 (16:50) 9.2 (00:00) 16.2 5.83 (15:40) 3.06 (16:30) 0 0 0 0 0
16-10-2019 23.6 (17:20) 7.9 (00:00) 15.8 5.28 (18:40) 3.33 (18:50) 0 0 0 0 0
15-10-2019 18.2 (17:10) 9.4 (00:00) 13.8 6.11 (15:50) 3.89 (15:20) 0.2 0 0.2 0 0
14-10-2019 22.7 (00:10) 14.1 (00:00) 18.4 13.33 (01:10) 9.44 (01:10) 2 0 0 0.2 1.8
13-10-2019 29.7 (15:50) 14.4 (00:00) 22.1 12.22 (17:50) 8.06 (16:30) 0 0 0 0 0
12-10-2019 28.4 (16:10) 18.2 (00:00) 23.3 8.61 (18:10) 6.11 (18:10) 0 0 0 0 0
11-10-2019 27.7 (15:40) 17.5 (00:00) 22.6 9.72 (13:50) 7.22 (00:40) 0 0 0 0 0
10-10-2019 28.2 (16:00) 17.3 (00:00) 22.8 12.5 (14:30) 8.61 (14:00) 0 0 0 0 0
09-10-2019 31.1 (16:40) 15.8 (00:00) 23.5 5.56 (17:30) 4.17 (23:30) 0 0 0 0 0
08-10-2019 29.3 (15:30) 17.1 (00:00) 23.2 9.44 (12:10) 6.67 (11:50) 0 0 0 0 0
07-10-2019 31.8 (17:10) 14.3 (00:00) 23 7.78 (18:20) 4.72 (18:10) 0 0 0 0 0
06-10-2019 29.9 (17:20) 14.2 (00:00) 22 6.67 (15:40) 3.89 (15:40) 0 0 0 0 0
05-10-2019 27.5 (16:30) 14.1 (00:00) 20.8 6.94 (16:40) 3.61 (16:40) 0 0 0 0 0
04-10-2019 30.7 (16:40) 13.1 (00:00) 21.9 6.39 (16:10) 3.89 (18:40) 0 0 0 0 0
03-10-2019 26.9 (17:50) 13 (00:00) 19.9 7.22 (16:10) 4.17 (16:10) 0 0 0 0 0
02-10-2019 26.2 (17:20) 15.1 (00:00) 20.7 8.61 (16:00) 5.83 (16:00) 0 0 0 0 0
01-10-2019 29 (16:10) 16.7 (00:00) 22.9 10 (18:50) 5.28 (16:20) 0 0 0 0 0
30-09-2019 31.2 (17:00) 15.9 (00:00) 23.6 5 (18:00) 3.06 (17:50) 0 0 0 0 0
29-09-2019 33.2 (17:10) 16.8 (00:00) 25 7.78 (15:50) 3.89 (15:20) 0 0 0 0 0
28-09-2019 33.2 (16:30) 16 (00:00) 24.6 7.78 (16:30) 5.28 (18:50) 0 0 0 0 0
27-09-2019 31.1 (17:40) 15.4 (00:00) 23.3 6.39 (15:50) 3.61 (16:20) 0 0 0 0 0
26-09-2019 31 (17:20) 15.1 (00:00) 23.1 7.5 (16:30) 4.17 (23:10) 0 0 0 0 0
25-09-2019 28.1 (17:50) 16.4 (00:00) 22.3 6.11 (15:40) 3.61 (15:40) 0 0 0 0 0
24-09-2019 30.5 (18:00) 14.3 (00:00) 22.4 5.56 (16:00) 3.06 (16:00) 0 0 0 0 0
23-09-2019 27.6 (17:20) 13.6 (00:00) 20.6 5.28 (16:00) 3.06 (17:00) 0 0 0 0 0
22-09-2019 24.1 (16:40) 16.2 (00:00) 20.2 8.61 (14:10) 5.83 (14:10) 0 0 0 0 0

Gráficas

Temp. máximas Temp. mínimas Temp. medias Precipitaciones Rachas de viento máximas Velocidades máximas media en intervalos de 10 minutos

Datos horarios

Fecha y hora oficial Temperatura (ºC) Velocidad del viento (km/h) Dirección del viento Racha (km/h) Dirección de racha Precipitación (mm) Presión (hPa) Tendencia (hPa) Humedad (%)
2019-10-21 23:00:00 12.7 0 Calma 7 Norte 0 -- -- 56
2019-10-21 22:00:00 13.3 4 Norte 12 Noroeste 0 -- -- 52
2019-10-21 21:00:00 13.8 5 Noroeste 9 Oeste 0 -- -- 51
2019-10-21 20:00:00 14.8 6 Noroeste 10 Noroeste 0 -- -- 47
2019-10-21 19:00:00 17.4 4 Oeste 10 Noroeste 0 -- -- 37
2019-10-21 18:00:00 18 4 Noroeste 15 Noroeste 0 -- -- 32
2019-10-21 17:00:00 18.2 6 Noroeste 15 Norte 0 -- -- 33
2019-10-21 16:00:00 18.5 8 Sur 14 Sudoeste 0 -- -- 34
2019-10-21 15:00:00 16.8 5 Norte 12 Oeste 0 -- -- 37
2019-10-21 14:00:00 17 6 Sudoeste 12 Sur 0 -- -- 39
2019-10-21 13:00:00 15.5 5 Noroeste 9 Norte 0 -- -- 58
2019-10-21 12:00:00 13.8 3 Nordeste 8 Nordeste 0 -- -- 68
2019-10-21 11:00:00 11.3 6 Nordeste 14 Nordeste 0 -- -- 78
2019-10-21 10:00:00 9.3 11 Nordeste 14 Nordeste 0 -- -- 87
2019-10-21 09:00:00 8 7 Este 10 Nordeste 0 -- -- 91
2019-10-21 08:00:00 8.3 9 Este 12 Nordeste 0 -- -- 89
2019-10-21 07:00:00 8.5 8 Este 10 Este 0 -- -- 89
2019-10-21 06:00:00 8.8 5 Nordeste 8 Este 0 -- -- 88
2019-10-21 05:00:00 9.3 5 Este 10 Este 0 -- -- 82
2019-10-21 04:00:00 9.8 5 Este 8 Este 0 -- -- 80
2019-10-21 03:00:00 9.7 5 Sur 13 Sur 0 -- -- 78
2019-10-21 02:00:00 10.1 8 Sudeste 10 Sudeste 0 -- -- 75
2019-10-21 01:00:00 10.7 6 Sur 10 Sur 0 -- -- 71
2019-10-21 00:00:00 11.2 4 Sudoeste 11 Oeste 0 -- -- 70
2019-10-20 23:00:00 11.3 5 Sudoeste 10 Sudeste 0 -- -- 67
2019-10-20 22:00:00 11.6 2 Sudeste 12 Oeste 0 -- -- 66
2019-10-20 21:00:00 12.1 8 Oeste 10 Oeste 0 -- -- 65
2019-10-20 20:00:00 13.2 9 Sudoeste 17 Oeste 0 -- -- 60
2019-10-20 19:00:00 15.1 9 Sudoeste 24 Oeste 0 -- -- 52
2019-10-20 18:00:00 15.8 15 Oeste 26 Oeste 0 -- -- 47
2019-10-20 17:00:00 16 19 Sudoeste 31 Sudoeste 0 -- -- 47
2019-10-20 16:00:00 15.8 18 Oeste 31 Oeste 0 -- -- 58
2019-10-20 15:00:00 15.4 19 Oeste 30 Oeste 0 -- -- 58
2019-10-20 14:00:00 15.1 15 Sudoeste 28 Sudoeste 0 -- -- 62
2019-10-20 13:00:00 13.7 19 Sudoeste 28 Oeste 0 -- -- 78
2019-10-20 12:00:00 13 13 Sudoeste 22 Sudoeste 0 -- -- 82
2019-10-20 11:00:00 12.2 13 Oeste 22 Oeste 0 -- -- 88
2019-10-20 10:00:00 11.3 6 Sur 17 Sudoeste 0 -- -- 93
2019-10-20 09:00:00 10.2 10 Sudoeste 13 Oeste 0 -- -- 94
2019-10-20 08:00:00 10.9 9 Oeste 19 Sudoeste 0 -- -- 92
2019-10-20 07:00:00 11.4 13 Sudoeste 23 Sur 0 -- -- 92
2019-10-20 06:00:00 11.9 10 Sudeste 18 Sudoeste 0.2 -- -- 93
2019-10-20 05:00:00 12.3 10 Sudoeste 26 Sudoeste 0 -- -- 93
2019-10-20 04:00:00 12.7 14 Sudoeste 26 Sudoeste 0 -- -- 93
2019-10-20 03:00:00 13 13 Sudoeste 35 Sudoeste 0 -- -- 94
2019-10-20 02:00:00 13.2 17 Sudoeste 38 Oeste 1.4 -- -- 94
2019-10-20 01:00:00 14.5 22 Oeste 36 Oeste 8.2 -- -- 92
2019-10-20 00:00:00 17.1 15 Oeste 30 Oeste 0.2 -- -- 81
2019-10-19 23:00:00 18.6 18 Sur 40 Sudoeste 0.2 -- -- 64
2019-10-19 22:00:00 19.4 22 Sur 35 Sur 0 -- -- 53
2019-10-19 21:00:00 19.9 23 Sudoeste 36 Sudoeste 0 -- -- 51
2019-10-19 20:00:00 20.6 19 Sur 38 Sudoeste 0 -- -- 47
2019-10-19 19:00:00 21.4 20 Sudoeste 42 Sudoeste 0 -- -- 45
2019-10-19 18:00:00 22.9 19 Sudoeste 41 Sudoeste 0 -- -- 39
2019-10-19 17:00:00 22.1 21 Sudoeste 30 Sudoeste 0 -- -- 42
2019-10-19 16:00:00 22.1 18 Oeste 32 Sudoeste 0 -- -- 39
2019-10-19 15:00:00 23 15 Oeste 35 Sudoeste 0 -- -- 38
2019-10-19 14:00:00 22.6 17 Oeste 29 Oeste 0 -- -- 41
2019-10-19 13:00:00 21.7 18 Sudoeste 31 Sudoeste 0 -- -- 44
2019-10-19 12:00:00 19.8 14 Sur 23 Sur 0 -- -- 55
2019-10-19 11:00:00 19 9 Sur 13 Sur 0 -- -- 59
2019-10-19 10:00:00 16.6 5 Sur 10 Sudeste 0 -- -- 76
2019-10-19 09:00:00 14.5 6 Sur 12 Sur 0 -- -- 87
2019-10-19 08:00:00 14.8 8 Sur 8 Sur 0 -- -- 84
2019-10-19 07:00:00 15.1 2 Oeste 5 Noroeste 0 -- -- 84
2019-10-19 06:00:00 15 3 Noroeste 11 Sudoeste 0 -- -- 85
2019-10-19 05:00:00 15.2 8 Sudoeste 10 Sudoeste 0 -- -- 83
2019-10-19 04:00:00 15.7 5 Sur 8 Sudoeste 0 -- -- 80
2019-10-19 03:00:00 16.8 0 Calma 6 Oeste 0 -- -- 76
2019-10-19 02:00:00 16.8 0 Calma 6 Sudoeste 0 -- -- 76
2019-10-19 01:00:00 17 6 Sudoeste 12 Sudoeste 0 -- -- 76
2019-10-19 00:00:00 17.6 4 Oeste 12 Noroeste 0 -- -- 72
2019-10-18 23:00:00 18.3 5 Oeste 15 Oeste 0 -- -- 70
2019-10-18 22:00:00 18.4 9 Sudoeste 13 Oeste 0 -- -- 60
2019-10-18 21:00:00 19.5 5 Oeste 13 Noroeste 0 -- -- 55
2019-10-18 20:00:00 20.8 9 Oeste 18 Noroeste 0 -- -- 52
2019-10-18 19:00:00 22.7 10 Noroeste 19 Oeste 0 -- -- 45
2019-10-18 18:00:00 24.1 11 Oeste 21 Oeste 0 -- -- 41
2019-10-18 17:00:00 24.1 6 Oeste 20 Oeste 0 -- -- 41
2019-10-18 16:00:00 24.2 7 Noroeste 21 Oeste 0 -- -- 42
2019-10-18 15:00:00 23.6 10 Oeste 19 Noroeste 0 -- -- 42
2019-10-18 14:00:00 23.1 6 Oeste 14 Noroeste 0 -- -- 43
2019-10-18 13:00:00 21.6 6 Noroeste 12 Noroeste 0 -- -- 45
2019-10-18 12:00:00 19.1 3 Nordeste 10 Nordeste 0 -- -- 43
2019-10-18 11:00:00 16.1 6 Nordeste 9 Nordeste 0 -- -- 48
2019-10-18 10:00:00 13.3 5 Nordeste 16 Este 0 -- -- 53
2019-10-18 09:00:00 11.6 4 Este 11 Este 0 -- -- 58
2019-10-18 08:00:00 12.4 5 Este 10 Este 0 -- -- 61
2019-10-18 07:00:00 12 5 Nordeste 6 Nordeste 0 -- -- 56
2019-10-18 06:00:00 12.7 4 Este 11 Este 0 -- -- 55
2019-10-18 05:00:00 13.8 5 Este 9 Este 0 -- -- 50
2019-10-18 04:00:00 15.4 6 Este 8 Este 0 -- -- 49
2019-10-18 03:00:00 14.4 2 Sudeste 8 Este 0 -- -- 43
2019-10-18 02:00:00 15.1 0 Calma 9 Este 0 -- -- 45
2019-10-18 01:00:00 16.1 6 Este 9 Este 0 -- -- 39
2019-10-18 00:00:00 16.7 5 Nordeste 8 Nordeste 0 -- -- 32
2019-10-17 23:00:00 17.4 6 Norte 10 Norte 0 -- -- 31
2019-10-17 22:00:00 18.4 0 Calma 3 Norte 0 -- -- 27
2019-10-17 21:00:00 19.1 3 Norte 5 Noroeste 0 -- -- 26
2019-10-17 20:00:00 19.7 4 Noroeste 14 Noroeste 0 -- -- 25
2019-10-17 19:00:00 22 9 Noroeste 16 Oeste 0 -- -- 20
2019-10-17 18:00:00 23.1 9 Oeste 15 Oeste 0 -- -- 18
2019-10-17 17:00:00 23.1 8 Noroeste 19 Oeste 0 -- -- 19
2019-10-17 16:00:00 22.4 7 Noroeste 21 Noroeste 0 -- -- 20
2019-10-17 15:00:00 22 7 Noroeste 16 Noroeste 0 -- -- 19
2019-10-17 14:00:00 21.2 5 Noroeste 13 Norte 0 -- -- 25
2019-10-17 13:00:00 19.3 4 Noroeste 11 Nordeste 0 -- -- 28
2019-10-17 12:00:00 17 6 Nordeste 9 Nordeste 0 -- -- 32
2019-10-17 11:00:00 14.4 3 Nordeste 8 Nordeste 0 -- -- 37
2019-10-17 10:00:00 11.4 7 Nordeste 9 Este 0 -- -- 46
2019-10-17 09:00:00 9.4 5 Nordeste 9 Nordeste 0 -- -- 53
2019-10-17 08:00:00 9.5 3 Este 12 Este 0 -- -- 50
2019-10-17 07:00:00 9.6 6 Nordeste 9 Este 0 -- -- 52
2019-10-17 06:00:00 10.1 6 Nordeste 9 Este 0 -- -- 48
2019-10-17 05:00:00 10.9 3 Este 13 Nordeste 0 -- -- 40
2019-10-17 04:00:00 13 6 Este 11 Sudeste 0 -- -- 34
2019-10-17 03:00:00 13.5 5 Este 8 Este 0 -- -- 34
2019-10-17 02:00:00 12.9 0 Calma 8 Este 0 -- -- 33
2019-10-17 01:00:00 13.9 3 Sur 10 Sur 0 -- -- 31
2019-10-17 00:00:00 15.8 6 Sudeste 10 Sudeste 0 -- -- 26
2019-10-16 23:00:00 16.8 5 Este 6 Este 0 -- -- 23
2019-10-16 22:00:00 16.5 3 Noroeste 8 Noroeste 0 -- -- 25
2019-10-16 21:00:00 17.3 6 Noroeste 13 Noroeste 0 -- -- 24
2019-10-16 20:00:00 18.6 8 Noroeste 14 Noroeste 0 -- -- 21
2019-10-16 19:00:00 21.7 11 Noroeste 19 Oeste 0 -- -- 11
2019-10-16 18:00:00 23.1 8 Noroeste 15 Oeste 0 -- -- 9
2019-10-16 17:00:00 22.7 6 Norte 18 Noroeste 0 -- -- 13
2019-10-16 16:00:00 22.2 5 Norte 13 Noroeste 0 -- -- 14
2019-10-16 15:00:00 21.4 5 Noroeste 14 Noroeste 0 -- -- 21
2019-10-16 14:00:00 20.4 7 Norte 13 Noroeste 0 -- -- 22
2019-10-16 13:00:00 18.8 5 Noroeste 9 Norte 0 -- -- 29
2019-10-16 12:00:00 16.4 2 Norte 6 Norte 0 -- -- 39
2019-10-16 11:00:00 13.1 4 Norte 6 Norte 0 -- -- 51
2019-10-16 10:00:00 11 0 Calma 12 Este 0 -- -- 61
2019-10-16 09:00:00 8.5 8 Este 13 Este 0 -- -- 69
2019-10-16 08:00:00 8.4 6 Nordeste 13 Nordeste 0 -- -- 68
2019-10-16 07:00:00 8.5 9 Nordeste 12 Este 0 -- -- 67
2019-10-16 06:00:00 8.6 10 Nordeste 13 Este 0 -- -- 63
2019-10-16 05:00:00 9.4 5 Este 10 Este 0 -- -- 58
2019-10-16 04:00:00 9.6 4 Este 11 Nordeste 0 -- -- 58
2019-10-16 03:00:00 10.4 6 Nordeste 11 Este 0 -- -- 54
2019-10-16 02:00:00 11.3 6 Este 10 Este 0 -- -- 49
2019-10-16 01:00:00 11.8 5 Sudeste 9 Sur 0 -- -- 46
2019-10-16 00:00:00 12.5 5 Sudeste 10 Sudeste 0 -- -- 45
2019-10-15 23:00:00 13 2 Sudeste 5 Nordeste 0 -- -- 43
2019-10-15 22:00:00 13.9 4 Nordeste 5 Sudoeste 0 -- -- 41
2019-10-15 21:00:00 13.7 3 Sudoeste 8 Oeste 0 -- -- 42
2019-10-15 20:00:00 15.2 4 Sudoeste 13 Noroeste 0 -- -- 40
2019-10-15 19:00:00 17.4 9 Oeste 22 Oeste 0 -- -- 34
2019-10-15 18:00:00 18 10 Noroeste 21 Noroeste 0 -- -- 34
2019-10-15 17:00:00 18.1 10 Oeste 20 Noroeste 0 -- -- 35
2019-10-15 16:00:00 16.7 12 Noroeste 22 Oeste 0 -- -- 37
2019-10-15 15:00:00 17.3 10 Noroeste 21 Noroeste 0 -- -- 38
2019-10-15 14:00:00 16.7 7 Noroeste 18 Oeste 0 -- -- 42
2019-10-15 13:00:00 14.9 9 Noroeste 18 Norte 0 -- -- 66
2019-10-15 12:00:00 13.1 8 Noroeste 12 Oeste 0 -- -- 84
2019-10-15 11:00:00 10.8 4 Nordeste 9 Norte 0 -- -- 94
2019-10-15 10:00:00 10.3 4 Noroeste 6 Noroeste 0 -- -- 94
2019-10-15 09:00:00 9.6 3 Noroeste 5 Nordeste 0.2 -- -- 93
2019-10-15 08:00:00 9.8 0 Calma 4 Oeste 0 -- -- 92
2019-10-15 07:00:00 10.5 2 Noroeste 5 Noroeste 0 -- -- 92
2019-10-15 06:00:00 10.8 2 Oeste 6 Noroeste 0 -- -- 92
2019-10-15 05:00:00 11.4 5 Noroeste 9 Oeste 0 -- -- 92
2019-10-15 04:00:00 12.1 6 Oeste 10 Noroeste 0 -- -- 92
2019-10-15 03:00:00 13 6 Noroeste 13 Noroeste 0 -- -- 93
2019-10-15 02:00:00 13.4 5 Noroeste 14 Oeste 0 -- -- 94
2019-10-15 01:00:00 13.8 8 Noroeste 17 Noroeste 0 -- -- 92
2019-10-15 00:00:00 14.1 7 Noroeste 25 Oeste 0.2 -- -- 92
2019-10-14 23:00:00 14.1 15 Sudoeste 30 Oeste 1.6 -- -- 90
2019-10-14 22:00:00 16.2 10 Sudoeste 35 Sudoeste 0 -- -- 58
2019-10-14 21:00:00 16.4 21 Sudoeste 43 Sudoeste 0 -- -- 55
2019-10-14 20:00:00 17.2 24 Sudoeste 41 Sudoeste 0 -- -- 47
2019-10-14 19:00:00 19.1 28 Oeste 41 Oeste 0 -- -- 46
2019-10-14 18:00:00 20.3 26 Sudoeste 40 Sudoeste 0 -- -- 49
2019-10-14 17:00:00 19 21 Sudoeste 42 Oeste 0.2 -- -- 63
2019-10-14 16:00:00 21.5 20 Oeste 37 Oeste 0 -- -- 44
2019-10-14 15:00:00 21.4 22 Oeste 40 Oeste 0 -- -- 45
2019-10-14 14:00:00 21.3 24 Sudoeste 39 Oeste 0 -- -- 47
2019-10-14 13:00:00 20.7 18 Sudoeste 40 Sudoeste 0 -- -- 45
2019-10-14 12:00:00 20.1 20 Sudoeste 33 Sudoeste 0 -- -- 46
2019-10-14 11:00:00 19.5 15 Oeste 35 Sudoeste 0 -- -- 59
2019-10-14 10:00:00 19.3 21 Sudoeste 31 Sudoeste 0 -- -- 56
2019-10-14 09:00:00 18.3 15 Sudoeste 30 Sur 0 -- -- 69
2019-10-14 08:00:00 18.9 22 Sur 37 Sur 0 -- -- 67
2019-10-14 07:00:00 20 28 Sur 42 Sudoeste 0 -- -- 58
2019-10-14 06:00:00 22 21 Sur 40 Sur 0 -- -- 41
2019-10-14 05:00:00 21.7 20 Sur 33 Sudeste 0 -- -- 40
2019-10-14 04:00:00 21 18 Sur 37 Sur 0 -- -- 46
2019-10-14 03:00:00 20.8 27 Sur 46 Sur 0 -- -- 52
2019-10-14 02:00:00 20 32 Sur 48 Sur 0 -- -- 56
2019-10-14 01:00:00 21.5 30 Sur 43 Sur 0 -- -- 44
2019-10-14 00:00:00 22.6 22 Sur 31 Sur 0 -- -- 33
2019-10-13 23:00:00 23.2 18 Sur 27 Sur 0 -- -- 29
2019-10-13 22:00:00 23.9 20 Sur 30 Sur 0 -- -- 21
2019-10-13 21:00:00 24.6 16 Sur 24 Sudeste 0 -- -- 17
2019-10-13 20:00:00 25.7 19 Sur 31 Sur 0 -- -- 19
2019-10-13 19:00:00 27.7 20 Sur 40 Sur 0 -- -- 20
2019-10-13 18:00:00 29 27 Sur 44 Sur 0 -- -- 22
2019-10-13 17:00:00 29.6 26 Sur 44 Sur 0 -- -- 22
2019-10-13 16:00:00 29.5 24 Sur 40 Sur 0 -- -- 20
2019-10-13 15:00:00 29 24 Sur 36 Sudeste 0 -- -- 22
2019-10-13 14:00:00 27.7 14 Sur 25 Sur 0 -- -- 28
2019-10-13 13:00:00 24.5 3 Sur 7 Sur 0 -- -- 49
2019-10-13 12:00:00 21.5 2 Sudeste 9 Nordeste 0 -- -- 60
2019-10-13 11:00:00 18.5 3 Noroeste 9 Oeste 0 -- -- 75
2019-10-13 10:00:00 15.7 2 Norte 6 Norte 0 -- -- 91
2019-10-13 09:00:00 15.8 3 Nordeste 6 Nordeste 0 -- -- 92
2019-10-13 08:00:00 16.1 0 Calma 8 Este 0 -- -- 92
2019-10-13 07:00:00 16 3 Nordeste 10 Noroeste 0 -- -- 92
2019-10-13 06:00:00 16.1 7 Noroeste 11 Oeste 0 -- -- 92
2019-10-13 05:00:00 15.9 4 Noroeste 9 Noroeste 0 -- -- 89
2019-10-13 04:00:00 16.3 2 Este 13 Nordeste 0 -- -- 71
2019-10-13 03:00:00 17.8 4 Nordeste 6 Norte 0 -- -- 66
2019-10-13 02:00:00 18.2 4 Nordeste 7 Norte 0 -- -- 66
2019-10-13 01:00:00 18.5 8 Sur 12 Sudoeste 0 -- -- 63
2019-10-13 00:00:00 19 6 Sur 12 Sur 0 -- -- 61
2019-10-12 23:00:00 20.3 3 Sudeste 14 Sudoeste 0 -- -- 56
2019-10-12 22:00:00 21.1 14 Sur 24 Sur 0 -- -- 55
2019-10-12 21:00:00 21.6 19 Sur 27 Sur 0 -- -- 53
2019-10-12 20:00:00 22.8 22 Sur 30 Sudoeste 0 -- -- 51
2019-10-12 19:00:00 25.5 19 Sudoeste 31 Sudoeste 0 -- -- 40
2019-10-12 18:00:00 27.5 19 Sudoeste 28 Sudoeste 0 -- -- 36
2019-10-12 17:00:00 28 17 Sudoeste 30 Sudoeste 0 -- -- 34
2019-10-12 16:00:00 28.3 16 Sur 26 Sur 0 -- -- 31
2019-10-12 15:00:00 27.5 18 Sur 30 Sudeste 0 -- -- 33
2019-10-12 14:00:00 26.5 19 Sur 28 Sur 0 -- -- 32
2019-10-12 13:00:00 25.7 13 Sur 24 Sudeste 0 -- -- 35
2019-10-12 12:00:00 23.7 14 Sur 20 Sur 0 -- -- 41
2019-10-12 11:00:00 20.2 8 Sur 17 Sur 0 -- -- 60
2019-10-12 10:00:00 19.3 4 Norte 22 Sur 0 -- -- 63
2019-10-12 09:00:00 19.4 11 Sur 19 Sudoeste 0 -- -- 60
2019-10-12 08:00:00 19.9 10 Este 22 Este 0 -- -- 44
2019-10-12 07:00:00 19.1 15 Sur 22 Sur 0 -- -- 51
2019-10-12 06:00:00 18.8 8 Sudeste 16 Este 0 -- -- 47
2019-10-12 05:00:00 18.5 8 Este 18 Este 0 -- -- 53
2019-10-12 04:00:00 18.6 8 Sudeste 12 Sur 0 -- -- 58
2019-10-12 03:00:00 18.5 6 Sur 16 Sur 0 -- -- 56
2019-10-12 02:00:00 18.9 12 Sur 15 Sudeste 0 -- -- 54
2019-10-12 01:00:00 19.3 8 Sur 13 Sur 0 -- -- 52
2019-10-12 00:00:00 19.6 5 Sur 17 Sur 0 -- -- 49
2019-10-11 23:00:00 19.4 12 Sur 16 Sur 0 -- -- 51
2019-10-11 22:00:00 20.9 3 Sur 23 Sur 0 -- -- 48
2019-10-11 21:00:00 21.5 15 Sur 22 Sur 0 -- -- 45
2019-10-11 20:00:00 22.3 9 Sur 23 Sur 0 -- -- 41
2019-10-11 19:00:00 23.7 15 Sur 23 Sur 0 -- -- 35
2019-10-11 18:00:00 25.3 16 Sudoeste 24 Sur 0 -- -- 29
2019-10-11 17:00:00 26.1 14 Sur 27 Sur 0 -- -- 28
2019-10-11 16:00:00 27.4 21 Sur 31 Sur 0 -- -- 25
2019-10-11 15:00:00 26.9 13 Sur 34 Sur 0 -- -- 29
2019-10-11 14:00:00 25.6 22 Sur 35 Sur 0 -- -- 28
2019-10-11 13:00:00 24.4 18 Sur 27 Sur 0 -- -- 30
2019-10-11 12:00:00 24.2 11 Sur 19 Sur 0 -- -- 30
2019-10-11 11:00:00 21.7 3 Sudeste 13 Sudeste 0 -- -- 48
2019-10-11 10:00:00 20.1 7 Sudeste 13 Sudeste 0 -- -- 56
2019-10-11 09:00:00 17.7 7 Este 14 Sur 0 -- -- 65
2019-10-11 08:00:00 18.2 10 Sudeste 14 Sudeste 0 -- -- 63
2019-10-11 07:00:00 17.5 8 Sudeste 17 Sudeste 0 -- -- 67
2019-10-11 06:00:00 18.5 12 Sudeste 16 Sudeste 0 -- -- 66
2019-10-11 05:00:00 18.7 10 Sudeste 19 Sur 0 -- -- 66
2019-10-11 04:00:00 19.1 13 Sudeste 27 Sudeste 0 -- -- 65
2019-10-11 03:00:00 19.4 15 Sur 29 Sudeste 0 -- -- 66
2019-10-11 02:00:00 19.5 19 Sur 30 Sur 0 -- -- 66
2019-10-11 01:00:00 19.2 23 Sur 35 Sur 0 -- -- 67
2019-10-11 00:00:00 19.7 24 Sur 34 Sur 0 -- -- 62
2019-10-10 23:00:00 19.6 17 Sur 23 Sur 0 -- -- 62
2019-10-10 22:00:00 20 12 Sur 25 Sur 0 -- -- 58
2019-10-10 21:00:00 21.4 19 Sur 35 Sur 0 -- -- 51
2019-10-10 20:00:00 23.3 24 Sur 34 Sur 0 -- -- 41
2019-10-10 19:00:00 26 24 Sur 38 Sur 0 -- -- 29
2019-10-10 18:00:00 27.3 24 Sur 39 Sur 0 -- -- 26
2019-10-10 17:00:00 27.6 25 Sur 40 Sur 0 -- -- 30
2019-10-10 16:00:00 28.2 25 Sur 39 Sur 0 -- -- 25
2019-10-10 15:00:00 27.6 29 Sur 45 Sur 0 -- -- 25
2019-10-10 14:00:00 26.6 31 Sur 43 Sur 0 -- -- 31
2019-10-10 13:00:00 26.1 24 Sur 42 Sur 0 -- -- 34
2019-10-10 12:00:00 25.5 19 Sur 29 Sur 0 -- -- 40
2019-10-10 11:00:00 23.9 18 Sur 27 Sur 0 -- -- 43
2019-10-10 10:00:00 21.3 19 Sur 29 Sur 0 -- -- 49
2019-10-10 09:00:00 17.8 10 Sudeste 18 Sur 0 -- -- 58
2019-10-10 08:00:00 17.9 12 Sur 17 Sur 0 -- -- 54
2019-10-10 07:00:00 17.4 11 Sur 23 Sur 0 -- -- 55
2019-10-10 06:00:00 17.9 15 Sur 22 Sur 0 -- -- 52
2019-10-10 05:00:00 18.5 14 Sur 20 Sur 0 -- -- 49
2019-10-10 04:00:00 19 12 Sur 17 Sur 0 -- -- 47
2019-10-10 03:00:00 19.4 9 Sur 14 Sur 0 -- -- 45
2019-10-10 02:00:00 20.2 7 Sudeste 13 Sur 0 -- -- 42
2019-10-10 01:00:00 21.4 3 Sudeste 15 Sur 0 -- -- 39
2019-10-10 00:00:00 21.6 14 Sur 19 Sur 0 -- -- 38
2019-10-09 23:00:00 22.4 14 Sur 18 Sur 0 -- -- 36
2019-10-09 22:00:00 23.5 13 Sur 14 Sur 0 -- -- 33
2019-10-09 21:00:00 25.4 7 Sur 10 Sur 0 -- -- 30
2019-10-09 20:00:00 27.2 8 Noroeste 14 Noroeste 0 -- -- 30
2019-10-09 19:00:00 30.2 8 Noroeste 15 Oeste 0 -- -- 24
2019-10-09 18:00:00 30.7 9 Noroeste 20 Noroeste 0 -- -- 23
2019-10-09 17:00:00 30.5 9 Noroeste 17 Oeste 0 -- -- 24
2019-10-09 16:00:00 30 9 Noroeste 15 Oeste 0 -- -- 24
2019-10-09 15:00:00 29.8 7 Sudoeste 16 Noroeste 0 -- -- 25
2019-10-09 14:00:00 28.2 5 Noroeste 12 Oeste 0 -- -- 30
2019-10-09 13:00:00 26.3 4 Noroeste 12 Oeste 0 -- -- 31
2019-10-09 12:00:00 24.6 3 Sudoeste 8 Sudoeste 0 -- -- 38
2019-10-09 11:00:00 22 7 Sur 12 Sur 0 -- -- 46
2019-10-09 10:00:00 19.5 6 Sudeste 9 Sur 0 -- -- 55
2019-10-09 09:00:00 16.2 5 Sudeste 9 Sudeste 0 -- -- 66
2019-10-09 08:00:00 16.1 3 Sudeste 12 Sur 0 -- -- 66
2019-10-09 07:00:00 16.3 6 Sur 16 Sur 0 -- -- 65
2019-10-09 06:00:00 16.7 9 Sur 18 Sur 0 -- -- 67
2019-10-09 05:00:00 17.3 4 Sudeste 16 Sudeste 0 -- -- 66
2019-10-09 04:00:00 17.5 7 Sur 14 Sudeste 0 -- -- 65
2019-10-09 03:00:00 18.1 10 Sudeste 14 Sudeste 0 -- -- 62
2019-10-09 02:00:00 18 7 Sur 12 Sur 0 -- -- 63
2019-10-09 01:00:00 18.8 10 Sur 14 Sur 0 -- -- 57
2019-10-09 00:00:00 19.3 12 Sur 17 Sur 0 -- -- 53
2019-10-08 23:00:00 19.9 10 Sur 22 Sur 0 -- -- 51
2019-10-08 22:00:00 20.8 7 Sur 16 Sur 0 -- -- 45
2019-10-08 21:00:00 22.1 13 Sur 23 Sur 0 -- -- 43
2019-10-08 20:00:00 24.5 19 Sur 29 Sur 0 -- -- 35
2019-10-08 19:00:00 27 21 Sur 31 Sur 0 -- -- 28
2019-10-08 18:00:00 28.4 20 Sur 31 Sur 0 -- -- 26
2019-10-08 17:00:00 29 18 Sur 32 Sur 0 -- -- 24
2019-10-08 16:00:00 29.3 17 Sur 27 Sur 0 -- -- 23
2019-10-08 15:00:00 29.1 18 Sur 28 Sur 0 -- -- 23
2019-10-08 14:00:00 28.5 21 Sur 29 Sudeste 0 -- -- 24
2019-10-08 13:00:00 27.7 18 Sudeste 34 Sudeste 0 -- -- 22
2019-10-08 12:00:00 26.3 23 Sur 33 Sur 0 -- -- 24
2019-10-08 11:00:00 24.4 17 Sudeste 25 Sudeste 0 -- -- 25
2019-10-08 10:00:00 20.8 6 Este 13 Sur 0 -- -- 42
2019-10-08 09:00:00 17.2 10 Sur 18 Sur 0 -- -- 54
2019-10-08 08:00:00 17.5 14 Sur 19 Sur 0 -- -- 52
2019-10-08 07:00:00 17.7 9 Sudeste 19 Sudeste 0 -- -- 47
2019-10-08 06:00:00 18.6 15 Sur 24 Sur 0 -- -- 40
2019-10-08 05:00:00 20.2 8 Sudeste 15 Sudeste 0 -- -- 30
2019-10-08 04:00:00 20.4 8 Este 15 Sur 0 -- -- 29
2019-10-08 03:00:00 20.6 10 Sur 15 Sur 0 -- -- 28
2019-10-08 02:00:00 22.4 5 Sudeste 11 Sudeste 0 -- -- 25
2019-10-08 01:00:00 23.3 3 Sur 5 Sur 0 -- -- 22
2019-10-08 00:00:00 23.7 3 Sudoeste 9 Sur 0 -- -- 21
2019-10-07 23:00:00 25.4 5 Nordeste 8 Norte 0 -- -- 19
2019-10-07 22:00:00 26.4 5 Norte 13 Norte 0 -- -- 18
2019-10-07 21:00:00 27.3 12 Norte 15 Noroeste 0 -- -- 16
2019-10-07 20:00:00 28.8 7 Noroeste 23 Norte 0 -- -- 15
2019-10-07 19:00:00 30.6 14 Norte 28 Noroeste 0 -- -- 13
2019-10-07 18:00:00 31.6 13 Norte 25 Noroeste 0 -- -- 11
2019-10-07 17:00:00 31.6 13 Oeste 26 Oeste 0 -- -- 13
2019-10-07 16:00:00 30.6 11 Noroeste 23 Noroeste 0 -- -- 16
2019-10-07 15:00:00 29.9 9 Noroeste 19 Noroeste 0 -- -- 16
2019-10-07 14:00:00 28.5 11 Noroeste 16 Noroeste 0 -- -- 17
2019-10-07 13:00:00 27.2 3 Noroeste 10 Oeste 0 -- -- 19
2019-10-07 12:00:00 24 0 Calma 6 Norte 0 -- -- 27
2019-10-07 11:00:00 19.8 5 Nordeste 9 Nordeste 0 -- -- 38
2019-10-07 10:00:00 17.8 3 Sudeste 10 Nordeste 0 -- -- 45
2019-10-07 09:00:00 14.3 2 Este 13 Este 0 -- -- 52
2019-10-07 08:00:00 15.2 9 Este 15 Este 0 -- -- 49
2019-10-07 07:00:00 15.7 9 Nordeste 13 Nordeste 0 -- -- 47
2019-10-07 06:00:00 16.5 8 Este 10 Sudeste 0 -- -- 43
2019-10-07 05:00:00 17.6 5 Este 10 Sur 0 -- -- 39
2019-10-07 04:00:00 18.3 7 Sur 10 Sur 0 -- -- 36
2019-10-07 03:00:00 20.8 4 Sudeste 10 Nordeste 0 -- -- 33
2019-10-07 02:00:00 20.4 6 Nordeste 10 Nordeste 0 -- -- 32
2019-10-07 01:00:00 20.9 8 Nordeste 9 Nordeste 0 -- -- 31
2019-10-07 00:00:00 21.8 6 Nordeste 12 Noroeste 0 -- -- 24
2019-10-06 23:00:00 22.8 5 Nordeste 8 Norte 0 -- -- 18
2019-10-06 22:00:00 24.1 3 Norte 5 Nordeste 0 -- -- 16
2019-10-06 21:00:00 24.6 2 Oeste 4 Oeste 0 -- -- 16
2019-10-06 20:00:00 25.6 3 Oeste 11 Noroeste 0 -- -- 13
2019-10-06 19:00:00 28.1 6 Noroeste 18 Noroeste 0 -- -- 13
2019-10-06 18:00:00 29.7 11 Oeste 20 Noroeste 0 -- -- 13
2019-10-06 17:00:00 29.7 9 Oeste 21 Oeste 0 -- -- 16
2019-10-06 16:00:00 29.1 9 Noroeste 24 Noroeste 0 -- -- 19
2019-10-06 15:00:00 28.4 10 Oeste 18 Oeste 0 -- -- 22
2019-10-06 14:00:00 27.2 9 Noroeste 18 Oeste 0 -- -- 25
2019-10-06 13:00:00 25.6 8 Noroeste 15 Noroeste 0 -- -- 33
2019-10-06 12:00:00 23.4 6 Noroeste 9 Norte 0 -- -- 39
2019-10-06 11:00:00 20.5 3 Nordeste 13 Este 0 -- -- 47
2019-10-06 10:00:00 17.2 7 Nordeste 14 Nordeste 0 -- -- 57
2019-10-06 09:00:00 14.4 4 Este 15 Este 0 -- -- 69
2019-10-06 08:00:00 14.9 7 Este 14 Este 0 -- -- 66
2019-10-06 07:00:00 15.1 11 Este 15 Este 0 -- -- 66
2019-10-06 06:00:00 16 6 Este 13 Este 0 -- -- 61
2019-10-06 05:00:00 16.9 3 Este 9 Este 0 -- -- 56
2019-10-06 04:00:00 17.5 7 Este 9 Este 0 -- -- 54
2019-10-06 03:00:00 18.9 0 Calma 9 Este 0 -- -- 48
2019-10-06 02:00:00 19.1 6 Este 10 Nordeste 0 -- -- 47
2019-10-06 01:00:00 19.8 8 Nordeste 10 Nordeste 0 -- -- 44
2019-10-06 00:00:00 20.5 7 Nordeste 12 Norte 0 -- -- 41
2019-10-05 23:00:00 21.5 6 Nordeste 8 Este 0 -- -- 38
2019-10-05 22:00:00 22 5 Oeste 8 Oeste 0 -- -- 36
2019-10-05 21:00:00 23.1 4 Oeste 5 Oeste 0 -- -- 33
2019-10-05 20:00:00 24.3 5 Noroeste 13 Oeste 0 -- -- 32
2019-10-05 19:00:00 26 9 Noroeste 21 Oeste 0 -- -- 29
2019-10-05 18:00:00 26.7 9 Noroeste 17 Noroeste 0 -- -- 27
2019-10-05 17:00:00 26.9 10 Noroeste 25 Noroeste 0 -- -- 27
2019-10-05 16:00:00 27 9 Noroeste 21 Noroeste 0 -- -- 28
2019-10-05 15:00:00 27.1 9 Noroeste 21 Noroeste 0 -- -- 27
2019-10-05 14:00:00 26 7 Noroeste 14 Oeste 0 -- -- 33
2019-10-05 13:00:00 24.7 6 Noroeste 14 Oeste 0 -- -- 32
2019-10-05 12:00:00 21.9 4 Norte 11 Nordeste 0 -- -- 34
2019-10-05 11:00:00 19.8 4 Norte 13 Nordeste 0 -- -- 45
2019-10-05 10:00:00 16.9 8 Nordeste 12 Nordeste 0 -- -- 49
2019-10-05 09:00:00 14.2 3 Este 16 Este 0 -- -- 61
2019-10-05 08:00:00 14.5 11 Nordeste 16 Nordeste 0 -- -- 58
2019-10-05 07:00:00 15.1 10 Nordeste 15 Este 0 -- -- 56
2019-10-05 06:00:00 15.5 9 Nordeste 12 Nordeste 0 -- -- 55
2019-10-05 05:00:00 16.5 8 Nordeste 10 Nordeste 0 -- -- 51
2019-10-05 04:00:00 17.3 8 Nordeste 9 Nordeste 0 -- -- 47
2019-10-05 03:00:00 17.8 5 Este 7 Este 0 -- -- 49
2019-10-05 02:00:00 19.7 5 Este 6 Este 0 -- -- 47
2019-10-05 01:00:00 19.9 3 Sudoeste 7 Sudoeste 0 -- -- 46
2019-10-05 00:00:00 20.5 4 Sudoeste 9 Sudoeste 0 -- -- 43
2019-10-04 23:00:00 21.2 5 Oeste 8 Oeste 0 -- -- 35
2019-10-04 22:00:00 21.9 8 Sudoeste 13 Oeste 0 -- -- 29
2019-10-04 21:00:00 24 6 Oeste 18 Oeste 0 -- -- 24
2019-10-04 20:00:00 26.2 9 Noroeste 20 Noroeste 0 -- -- 19
2019-10-04 19:00:00 28.5 13 Noroeste 21 Oeste 0 -- -- 14
2019-10-04 18:00:00 30 9 Noroeste 20 Noroeste 0 -- -- 15
2019-10-04 17:00:00 30.7 11 Sudoeste 23 Sudoeste 0 -- -- 10
2019-10-04 16:00:00 30.3 10 Oeste 22 Oeste 0 -- -- 11
2019-10-04 15:00:00 29.2 8 Oeste 18 Oeste 0 -- -- 15
2019-10-04 14:00:00 27.9 7 Sudoeste 12 Sudoeste 0 -- -- 18
2019-10-04 13:00:00 25.9 3 Norte 8 Nordeste 0 -- -- 24
2019-10-04 12:00:00 23.1 4 Nordeste 10 Nordeste 0 -- -- 30
2019-10-04 11:00:00 19.1 6 Nordeste 14 Este 0 -- -- 40
2019-10-04 10:00:00 16 7 Nordeste 13 Nordeste 0 -- -- 50
2019-10-04 09:00:00 13.3 6 Este 12 Este 0 -- -- 58
2019-10-04 08:00:00 13.1 8 Nordeste 10 Nordeste 0 -- -- 58
2019-10-04 07:00:00 14 9 Nordeste 12 Este 0 -- -- 54
2019-10-04 06:00:00 14 4 Nordeste 8 Nordeste 0 -- -- 50
2019-10-04 05:00:00 15.6 4 Este 7 Este 0 -- -- 47
2019-10-04 04:00:00 15.4 4 Nordeste 6 Nordeste 0 -- -- 46
2019-10-04 03:00:00 15.6 6 Noroeste 10 Noroeste 0 -- -- 42
2019-10-04 02:00:00 17.5 3 Nordeste 8 Nordeste 0 -- -- 36
2019-10-04 01:00:00 17.9 4 Norte 10 Norte 0 -- -- 36
2019-10-04 00:00:00 18.8 6 Nordeste 12 Nordeste 0 -- -- 33
2019-10-03 23:00:00 20 4 Este 8 Este 0 -- -- 31
2019-10-03 22:00:00 20.1 5 Sudoeste 15 Oeste 0 -- -- 31
2019-10-03 21:00:00 22.3 9 Oeste 13 Oeste 0 -- -- 27
2019-10-03 20:00:00 24.1 6 Noroeste 15 Noroeste 0 -- -- 25
2019-10-03 19:00:00 26 8 Noroeste 22 Oeste 0 -- -- 22
2019-10-03 18:00:00 26.6 11 Noroeste 25 Oeste 0 -- -- 21
2019-10-03 17:00:00 26.8 12 Oeste 26 Noroeste 0 -- -- 20
2019-10-03 16:00:00 25.7 13 Noroeste 25 Noroeste 0 -- -- 23
2019-10-03 15:00:00 25.3 9 Oeste 19 Oeste 0 -- -- 25
2019-10-03 14:00:00 24.2 6 Oeste 17 Norte 0 -- -- 31
2019-10-03 13:00:00 22.3 4 Oeste 15 Oeste 0 -- -- 38
2019-10-03 12:00:00 20.4 6 Noroeste 12 Noroeste 0 -- -- 48
2019-10-03 11:00:00 18.5 3 Norte 10 Nordeste 0 -- -- 51
2019-10-03 10:00:00 14.8 9 Nordeste 14 Nordeste 0 -- -- 60
2019-10-03 09:00:00 13.3 10 Nordeste 13 Nordeste 0 -- -- 66
2019-10-03 08:00:00 13.8 9 Nordeste 10 Este 0 -- -- 60
2019-10-03 07:00:00 14.5 3 Nordeste 7 Este 0 -- -- 56
2019-10-03 06:00:00 14.8 3 Nordeste 6 Nordeste 0 -- -- 56
2019-10-03 05:00:00 16.3 3 Este 7 Este 0 -- -- 53
2019-10-03 04:00:00 16.4 4 Este 9 Este 0 -- -- 53
2019-10-03 03:00:00 16.7 4 Este 10 Nordeste 0 -- -- 50
2019-10-03 02:00:00 17.2 5 Este 8 Norte 0 -- -- 46
2019-10-03 01:00:00 17.8 6 Nordeste 10 Nordeste 0 -- -- 44
2019-10-03 00:00:00 18.4 6 Nordeste 10 Norte 0 -- -- 39
2019-10-02 23:00:00 19.7 6 Norte 10 Norte 0 -- -- 31
2019-10-02 22:00:00 20.9 7 Norte 10 Norte 0 -- -- 25
2019-10-02 21:00:00 21.9 4 Noroeste 16 Oeste 0 -- -- 22
2019-10-02 20:00:00 23.3 10 Oeste 23 Oeste 0 -- -- 21
2019-10-02 19:00:00 25.3 10 Oeste 27 Oeste 0 -- -- 21
2019-10-02 18:00:00 25.5 15 Noroeste 29 Oeste 0 -- -- 18
2019-10-02 17:00:00 26 14 Noroeste 28 Noroeste 0 -- -- 20
2019-10-02 16:00:00 24.9 21 Oeste 31 Oeste 0 -- -- 26
2019-10-02 15:00:00 24.8 15 Noroeste 26 Noroeste 0 -- -- 28
2019-10-02 14:00:00 23.9 16 Noroeste 26 Noroeste 0 -- -- 25
2019-10-02 13:00:00 23 8 Noroeste 15 Noroeste 0 -- -- 36
2019-10-02 12:00:00 21.8 4 Sudeste 8 Sur 0 -- -- 41
2019-10-02 11:00:00 19.1 4 Noroeste 8 Noroeste 0 -- -- 47
2019-10-02 10:00:00 17.7 0 Calma 4 Sur 0 -- -- 55
2019-10-02 09:00:00 15.1 5 Sur 8 Sur 0 -- -- 63
2019-10-02 08:00:00 15.6 3 Oeste 5 Sur 0 -- -- 59
2019-10-02 07:00:00 16.2 3 Sudeste 5 Sudeste 0 -- -- 56
2019-10-02 06:00:00 16.2 0 Calma 14 Noroeste 0 -- -- 57
2019-10-02 05:00:00 16.8 9 Noroeste 13 Noroeste 0 -- -- 56
2019-10-02 04:00:00 17.6 7 Norte 10 Norte 0 -- -- 53
2019-10-02 03:00:00 18.3 7 Norte 9 Norte 0 -- -- 48
2019-10-02 02:00:00 19.5 2 Oeste 5 Oeste 0 -- -- 45
2019-10-02 01:00:00 19.7 5 Oeste 12 Oeste 0 -- -- 44
2019-10-02 00:00:00 20.9 9 Oeste 19 Noroeste 0 -- -- 37
2019-10-01 23:00:00 22.1 12 Oeste 22 Oeste 0 -- -- 33
2019-10-01 22:00:00 23.5 12 Noroeste 22 Noroeste 0 -- -- 29
2019-10-01 21:00:00 24.7 11 Noroeste 30 Oeste 0 -- -- 25
2019-10-01 20:00:00 26.8 16 Oeste 31 Oeste 0 -- -- 19
2019-10-01 19:00:00 28.1 17 Oeste 36 Oeste 0 -- -- 16
2019-10-01 18:00:00 28.7 13 Noroeste 31 Noroeste 0 -- -- 15
2019-10-01 17:00:00 28.8 17 Oeste 31 Oeste 0 -- -- 13
2019-10-01 16:00:00 28.5 16 Noroeste 30 Oeste 0 -- -- 11
2019-10-01 15:00:00 28 12 Noroeste 28 Oeste 0 -- -- 13
2019-10-01 14:00:00 27.6 13 Oeste 26 Oeste 0 -- -- 14
2019-10-01 13:00:00 26.3 9 Oeste 15 Noroeste 0 -- -- 19
2019-10-01 12:00:00 24.3 6 Oeste 12 Noroeste 0 -- -- 26
2019-10-01 11:00:00 21.9 5 Noroeste 9 Noroeste 0 -- -- 39
2019-10-01 10:00:00 19 5 Nordeste 9 Nordeste 0 -- -- 48
2019-10-01 09:00:00 17.5 7 Este 13 Este 0 -- -- 48
2019-10-01 08:00:00 16.8 0 Calma 12 Este 0 -- -- 52
2019-10-01 07:00:00 17.9 7 Este 14 Este 0 -- -- 46
2019-10-01 06:00:00 17.8 9 Nordeste 13 Nordeste 0 -- -- 48
2019-10-01 05:00:00 19.4 7 Sudeste 12 Sur 0 -- -- 41
2019-10-01 04:00:00 20.4 6 Sudeste 9 Sudeste 0 -- -- 39
2019-10-01 03:00:00 20.2 3 Sudeste 13 Este 0 -- -- 40
2019-10-01 02:00:00 21.1 9 Este 12 Este 0 -- -- 38
2019-10-01 01:00:00 21.9 6 Nordeste 10 Nordeste 0 -- -- 36
2019-10-01 00:00:00 23.3 6 Sudeste 12 Este 0 -- -- 29
2019-09-30 23:00:00 25.1 9 Este 12 Sudeste 0 -- -- 25
2019-09-30 22:00:00 26.2 8 Este 10 Este 0 -- -- 24
2019-09-30 21:00:00 27 3 Nordeste 8 Norte 0 -- -- 23
2019-09-30 20:00:00 28.1 7 Noroeste 9 Noroeste 0 -- -- 22
2019-09-30 19:00:00 29.3 6 Noroeste 16 Oeste 0 -- -- 19
2019-09-30 18:00:00 30.9 9 Sudoeste 18 Oeste 0 -- -- 17
2019-09-30 17:00:00 31.2 8 Oeste 16 Oeste 0 -- -- 17
2019-09-30 16:00:00 30.8 5 Oeste 17 Oeste 0 -- -- 18
2019-09-30 15:00:00 29.7 6 Noroeste 15 Oeste 0 -- -- 22
2019-09-30 14:00:00 28.6 8 Oeste 13 Oeste 0 -- -- 25
2019-09-30 13:00:00 27.4 4 Este 9 Norte 0 -- -- 28
2019-09-30 12:00:00 25.2 4 Nordeste 8 Norte 0 -- -- 35
2019-09-30 11:00:00 21.5 4 Nordeste 9 Nordeste 0 -- -- 44
2019-09-30 10:00:00 18.5 4 Nordeste 6 Nordeste 0 -- -- 54
2019-09-30 09:00:00 16.2 4 Nordeste 12 Nordeste 0 -- -- 63
2019-09-30 08:00:00 16.1 9 Este 11 Nordeste 0 -- -- 62
2019-09-30 07:00:00 16.7 7 Nordeste 10 Nordeste 0 -- -- 59
2019-09-30 06:00:00 17.3 7 Nordeste 11 Nordeste 0 -- -- 57
2019-09-30 05:00:00 18.8 6 Nordeste 8 Nordeste 0 -- -- 50
2019-09-30 04:00:00 19.9 5 Este 13 Este 0 -- -- 47
2019-09-30 03:00:00 20.2 9 Nordeste 11 Este 0 -- -- 43
2019-09-30 02:00:00 21.6 4 Nordeste 8 Nordeste 0 -- -- 41
2019-09-30 01:00:00 21.8 5 Este 8 Nordeste 0 -- -- 42
2019-09-30 00:00:00 22.9 2 Sudeste 7 Sur 0 -- -- 39
2019-09-29 23:00:00 23.5 7 Sur 11 Oeste 0 -- -- 36
2019-09-29 22:00:00 25.2 4 Oeste 9 Sur 0 -- -- 29
2019-09-29 21:00:00 25.9 6 Sur 12 Oeste 0 -- -- 28
2019-09-29 20:00:00 29 8 Oeste 19 Noroeste 0 -- -- 18
2019-09-29 19:00:00 31.2 13 Noroeste 21 Oeste 0 -- -- 16
2019-09-29 18:00:00 32.8 9 Sudoeste 22 Sudoeste 0 -- -- 14
2019-09-29 17:00:00 33.1 7 Oeste 20 Sudoeste 0 -- -- 14
2019-09-29 16:00:00 32.4 10 Sudoeste 28 Sudoeste 0 -- -- 12
2019-09-29 15:00:00 31.7 10 Sudoeste 19 Sudoeste 0 -- -- 18
2019-09-29 14:00:00 30.2 4 Noroeste 19 Sudoeste 0 -- -- 19
2019-09-29 13:00:00 28.3 5 Noroeste 10 Noroeste 0 -- -- 22
2019-09-29 12:00:00 25.2 5 Norte 8 Norte 0 -- -- 29
2019-09-29 11:00:00 21.9 6 Nordeste 9 Nordeste 0 -- -- 39
2019-09-29 10:00:00 20.3 4 Este 7 Sudeste 0 -- -- 44
2019-09-29 09:00:00 16.9 4 Nordeste 8 Sur 0 -- -- 52
2019-09-29 08:00:00 17.8 4 Nordeste 11 Este 0 -- -- 47
2019-09-29 07:00:00 17.5 9 Este 15 Nordeste 0 -- -- 49
2019-09-29 06:00:00 17.4 4 Este 13 Nordeste 0 -- -- 53
2019-09-29 05:00:00 18.8 10 Este 13 Sudeste 0 -- -- 48
2019-09-29 04:00:00 19.3 6 Sudeste 14 Sur 0 -- -- 47
2019-09-29 03:00:00 19.7 11 Sur 15 Sur 0 -- -- 47
2019-09-29 02:00:00 20.6 8 Sudeste 12 Sur 0 -- -- 44
2019-09-29 01:00:00 21.6 5 Sudeste 11 Sur 0 -- -- 39
2019-09-29 00:00:00 22.2 8 Sur 13 Sudoeste 0 -- -- 35
2019-09-28 23:00:00 22.7 2 Sudoeste 17 Sur 0 -- -- 34
2019-09-28 22:00:00 23.7 10 Sur 23 Sudoeste 0 -- -- 32
2019-09-28 21:00:00 25.6 16 Sur 24 Sudoeste 0 -- -- 28
2019-09-28 20:00:00 28.3 15 Sudoeste 23 Sudoeste 0 -- -- 23
2019-09-28 19:00:00 31.1 18 Sudoeste 27 Sudoeste 0 -- -- 17
2019-09-28 18:00:00 32.7 15 Sudoeste 24 Sudoeste 0 -- -- 15
2019-09-28 17:00:00 32.9 14 Sur 28 Sudoeste 0 -- -- 13
2019-09-28 16:00:00 33.1 14 Sur 26 Sudoeste 0 -- -- 14
2019-09-28 15:00:00 32.3 16 Sudoeste 26 Sudoeste 0 -- -- 9
2019-09-28 14:00:00 30.6 8 Oeste 18 Oeste 0 -- -- 16
2019-09-28 13:00:00 28.5 5 Nordeste 8 Nordeste 0 -- -- 23
2019-09-28 12:00:00 25.4 4 Norte 8 Nordeste 0 -- -- 27
2019-09-28 11:00:00 22 6 Nordeste 10 Nordeste 0 -- -- 35
2019-09-28 10:00:00 19 4 Nordeste 12 Nordeste 0 -- -- 43
2019-09-28 09:00:00 16.5 9 Este 15 Nordeste 0 -- -- 49
2019-09-28 08:00:00 16.4 10 Este 17 Nordeste 0 -- -- 49
2019-09-28 07:00:00 16.5 11 Nordeste 17 Nordeste 0 -- -- 48
2019-09-28 06:00:00 16.3 12 Nordeste 15 Nordeste 0 -- -- 50
2019-09-28 05:00:00 17.2 11 Este 16 Este 0 -- -- 46
2019-09-28 04:00:00 17.5 13 Nordeste 14 Nordeste 0 -- -- 45
2019-09-28 03:00:00 18.9 10 Nordeste 13 Nordeste 0 -- -- 35
2019-09-28 02:00:00 20.5 7 Este 13 Nordeste 0 -- -- 32
2019-09-28 01:00:00 21.2 6 Este 8 Este 0 -- -- 28
2019-09-28 00:00:00 22.4 7 Sur 10 Sur 0 -- -- 25
2019-09-27 23:00:00 24.6 0 Calma 6 Este 0 -- -- 20
2019-09-27 22:00:00 25.5 0 Calma 8 Norte 0 -- -- 18
2019-09-27 21:00:00 25.6 7 Norte 10 Noroeste 0 -- -- 19
2019-09-27 20:00:00 27.9 7 Noroeste 15 Noroeste 0 -- -- 16
2019-09-27 19:00:00 30 9 Noroeste 21 Noroeste 0 -- -- 15
2019-09-27 18:00:00 30.8 7 Noroeste 17 Oeste 0 -- -- 16
2019-09-27 17:00:00 30.5 8 Noroeste 22 Noroeste 0 -- -- 17
2019-09-27 16:00:00 31 9 Oeste 23 Noroeste 0 -- -- 16
2019-09-27 15:00:00 29.9 8 Oeste 20 Noroeste 0 -- -- 19
2019-09-27 14:00:00 29.7 5 Oeste 14 Sudoeste 0 -- -- 21
2019-09-27 13:00:00 27.6 4 Norte 9 Noroeste 0 -- -- 25
2019-09-27 12:00:00 25.3 4 Nordeste 8 Norte 0 -- -- 33
2019-09-27 11:00:00 21.8 4 Nordeste 7 Nordeste 0 -- -- 42
2019-09-27 10:00:00 18.2 4 Nordeste 13 Nordeste 0 -- -- 53
2019-09-27 09:00:00 15.8 5 Nordeste 10 Nordeste 0 -- -- 61
2019-09-27 08:00:00 15.5 9 Nordeste 10 Este 0 -- -- 61
2019-09-27 07:00:00 16.6 5 Este 9 Este 0 -- -- 57
2019-09-27 06:00:00 17.3 4 Este 9 Nordeste 0 -- -- 55
2019-09-27 05:00:00 18 7 Este 10 Este 0 -- -- 53
2019-09-27 04:00:00 18.7 7 Este 10 Sudeste 0 -- -- 51
2019-09-27 03:00:00 18.5 6 Este 11 Este 0 -- -- 54
2019-09-27 02:00:00 19 7 Sudeste 16 Sur 0 -- -- 52
2019-09-27 01:00:00 20 11 Sur 15 Sur 0 -- -- 49
2019-09-27 00:00:00 21.1 12 Sur 18 Sur 0 -- -- 45
2019-09-26 23:00:00 21.9 14 Sur 18 Sur 0 -- -- 42
2019-09-26 22:00:00 23.2 10 Sur 14 Sur 0 -- -- 38
2019-09-26 21:00:00 24.8 8 Sur 15 Sudoeste 0 -- -- 34
2019-09-26 20:00:00 27.8 9 Sudoeste 14 Sur 0 -- -- 26
2019-09-26 19:00:00 30.5 6 Sudoeste 18 Sudoeste 0 -- -- 19
2019-09-26 18:00:00 30.9 10 Sudoeste 21 Sudoeste 0 -- -- 17
2019-09-26 17:00:00 30.8 13 Sudoeste 27 Sudoeste 0 -- -- 16
2019-09-26 16:00:00 30.5 9 Sudoeste 21 Sudoeste 0 -- -- 20
2019-09-26 15:00:00 29.8 8 Oeste 22 Sur 0 -- -- 21
2019-09-26 14:00:00 29.3 8 Sudoeste 19 Sur 0 -- -- 20
2019-09-26 13:00:00 27.6 5 Sur 14 Sur 0 -- -- 24
2019-09-26 12:00:00 24.8 2 Norte 9 Nordeste 0 -- -- 32
2019-09-26 11:00:00 21.2 5 Nordeste 8 Nordeste 0 -- -- 39
2019-09-26 10:00:00 18 4 Nordeste 8 Este 0 -- -- 47
2019-09-26 09:00:00 15.9 5 Sudeste 13 Este 0 -- -- 51
2019-09-26 08:00:00 15.2 11 Este 13 Este 0 -- -- 56
2019-09-26 07:00:00 16 6 Nordeste 6 Nordeste 0 -- -- 47
2019-09-26 06:00:00 16.7 4 Este 9 Este 0 -- -- 44
2019-09-26 05:00:00 16.8 8 Este 9 Este 0 -- -- 47
2019-09-26 04:00:00 17.7 3 Este 6 Nordeste 0 -- -- 40
2019-09-26 03:00:00 18 0 Calma 8 Este 0 -- -- 39
2019-09-26 02:00:00 19.5 0 Calma 4 Sur 0 -- -- 35
2019-09-26 01:00:00 19.7 4 Sudoeste 9 Sur 0 -- -- 33
2019-09-26 00:00:00 21.4 2 Sudoeste 9 Este 0 -- -- 29
2019-09-25 23:00:00 22.4 0 Calma 4 Sur 0 -- -- 25
2019-09-25 22:00:00 23.5 2 Noroeste 7 Noroeste 0 -- -- 23
2019-09-25 21:00:00 23.8 5 Noroeste 16 Noroeste 0 -- -- 24
2019-09-25 20:00:00 25.7 8 Noroeste 17 Noroeste 0 -- -- 25
2019-09-25 19:00:00 27.5 11 Noroeste 20 Oeste 0 -- -- 20
2019-09-25 18:00:00 28.1 13 Noroeste 21 Noroeste 0 -- -- 18
2019-09-25 17:00:00 27.6 13 Noroeste 21 Noroeste 0 -- -- 20
2019-09-25 16:00:00 27.4 11 Noroeste 22 Noroeste 0 -- -- 24
2019-09-25 15:00:00 27.2 8 Noroeste 19 Oeste 0 -- -- 33
2019-09-25 14:00:00 26.2 9 Oeste 19 Oeste 0 -- -- 37
2019-09-25 13:00:00 25 6 Noroeste 13 Oeste 0 -- -- 45
2019-09-25 12:00:00 23.5 2 Sur 9 Norte 0 -- -- 47
2019-09-25 11:00:00 21.3 3 Norte 10 Nordeste 0 -- -- 51
2019-09-25 10:00:00 18.9 2 Norte 6 Nordeste 0 -- -- 56
2019-09-25 09:00:00 17.1 0 Calma 3 Nordeste 0 -- -- 55
2019-09-25 08:00:00 16.7 3 Este 5 Sur 0 -- -- 53
2019-09-25 07:00:00 17.8 3 Sudeste 9 Sur 0 -- -- 49
2019-09-25 06:00:00 17.9 3 Sur 7 Este 0 -- -- 46
2019-09-25 05:00:00 18.5 5 Este 7 Este 0 -- -- 42
2019-09-25 04:00:00 18.8 4 Nordeste 6 Nordeste 0 -- -- 42
2019-09-25 03:00:00 19.6 0 Calma 3 Sudeste 0 -- -- 38
2019-09-25 02:00:00 20.2 2 Este 8 Sudeste 0 -- -- 36
2019-09-25 01:00:00 21.3 5 Este 13 Norte 0 -- -- 33
2019-09-25 00:00:00 22.1 4 Norte 8 Norte 0 -- -- 29
2019-09-24 23:00:00 23.1 5 Nordeste 8 Nordeste 0 -- -- 27
2019-09-24 22:00:00 24.8 2 Oeste 6 Noroeste 0 -- -- 22
2019-09-24 21:00:00 25.7 4 Noroeste 12 Noroeste 0 -- -- 21
2019-09-24 20:00:00 27.5 8 Noroeste 16 Noroeste 0 -- -- 19
2019-09-24 19:00:00 29.6 9 Noroeste 18 Noroeste 0 -- -- 16
2019-09-24 18:00:00 30.5 11 Oeste 19 Oeste 0 -- -- 15
2019-09-24 17:00:00 30.3 4 Noroeste 17 Noroeste 0 -- -- 17
2019-09-24 16:00:00 29.3 11 Noroeste 20 Noroeste 0 -- -- 18
2019-09-24 15:00:00 28.9 9 Oeste 17 Noroeste 0 -- -- 19
2019-09-24 14:00:00 27.8 9 Oeste 18 Noroeste 0 -- -- 24
2019-09-24 13:00:00 26.6 6 Sudoeste 12 Nordeste 0 -- -- 27
2019-09-24 12:00:00 24 4 Nordeste 9 Nordeste 0 -- -- 34
2019-09-24 11:00:00 20.8 4 Nordeste 12 Nordeste 0 -- -- 47
2019-09-24 10:00:00 17 10 Nordeste 12 Nordeste 0 -- -- 55
2019-09-24 09:00:00 15 0 Calma 12 Este 0 -- -- 63
2019-09-24 08:00:00 14.6 10 Nordeste 11 Nordeste 0 -- -- 65
2019-09-24 07:00:00 15.7 7 Este 9 Este 0 -- -- 56
2019-09-24 06:00:00 16.2 8 Nordeste 9 Nordeste 0 -- -- 54
2019-09-24 05:00:00 16.9 5 Este 10 Sudeste 0 -- -- 50
2019-09-24 04:00:00 17.8 4 Sudeste 7 Sudeste 0 -- -- 47
2019-09-24 03:00:00 18 4 Sudeste 9 Nordeste 0 -- -- 49
2019-09-24 02:00:00 19.4 8 Nordeste 11 Este 0 -- -- 45
2019-09-24 01:00:00 19.6 8 Este 9 Este 0 -- -- 42
2019-09-24 00:00:00 19.7 6 Sudeste 10 Sur 0 -- -- 41
2019-09-23 23:00:00 22.1 0 Calma 2 Sudeste 0 -- -- 33
2019-09-23 22:00:00 22.1 4 Oeste 8 Noroeste 0 -- -- 33
2019-09-23 21:00:00 22.8 5 Oeste 10 Oeste 0 -- -- 32
2019-09-23 20:00:00 24.6 8 Noroeste 14 Oeste 0 -- -- 29
2019-09-23 19:00:00 26.3 9 Noroeste 18 Oeste 0 -- -- 25
2019-09-23 18:00:00 27 10 Noroeste 18 Noroeste 0 -- -- 23
2019-09-23 17:00:00 27.1 11 Oeste 18 Oeste 0 -- -- 23
2019-09-23 16:00:00 26.3 9 Noroeste 19 Noroeste 0 -- -- 26
2019-09-23 15:00:00 26.1 7 Oeste 14 Norte 0 -- -- 30
2019-09-23 14:00:00 24.3 7 Oeste 16 Oeste 0 -- -- 37
2019-09-23 13:00:00 23.3 4 Norte 13 Nordeste 0 -- -- 42
2019-09-23 12:00:00 21.4 8 Nordeste 13 Nordeste 0 -- -- 47
2019-09-23 11:00:00 18.6 2 Nordeste 6 Nordeste 0 -- -- 56
2019-09-23 10:00:00 15.4 4 Nordeste 9 Nordeste 0 -- -- 76
2019-09-23 09:00:00 14.1 5 Nordeste 10 Nordeste 0 -- -- 80
2019-09-23 08:00:00 14.1 6 Este 9 Este 0 -- -- 79
2019-09-23 07:00:00 14.1 4 Nordeste 8 Nordeste 0 -- -- 73
2019-09-23 06:00:00 14.8 4 Este 6 Nordeste 0 -- -- 70
2019-09-23 05:00:00 14.9 4 Este 5 Este 0 -- -- 67
2019-09-23 04:00:00 16 2 Este 6 Este 0 -- -- 59
2019-09-23 03:00:00 16.6 3 Nordeste 6 Este 0 -- -- 58
2019-09-23 02:00:00 17 3 Noroeste 6 Sudoeste 0 -- -- 56
2019-09-23 01:00:00 17.6 5 Sudoeste 9 Sudoeste 0 -- -- 53
2019-09-23 00:00:00 18.2 4 Sudoeste 14 Sudoeste 0 -- -- 51
2019-09-22 23:00:00 18.7 11 Sudoeste 19 Oeste 0 -- -- 49
2019-09-22 22:00:00 19.1 5 Sur 10 Sudoeste 0 -- -- 51
2019-09-22 21:00:00 20 8 Sudoeste 9 Oeste 0 -- -- 47
2019-09-22 20:00:00 21.9 5 Oeste 17 Oeste 0 -- -- 40
2019-09-22 19:00:00 23.4 9 Oeste 27 Oeste 0 -- -- 30
2019-09-22 18:00:00 24 15 Oeste 25 Noroeste 0 -- -- 34
2019-09-22 17:00:00 24.1 13 Oeste 26 Noroeste 0 -- -- 41
2019-09-22 16:00:00 23.3 14 Noroeste 23 Noroeste 0 -- -- 62
2019-09-22 15:00:00 23.4 10 Sudoeste 31 Sudoeste 0 -- -- 62
2019-09-22 14:00:00 22.3 18 Oeste 28 Oeste 0 -- -- 65
2019-09-22 13:00:00 22.8 10 Noroeste 19 Oeste 0 -- -- 63
2019-09-22 12:00:00 21.5 5 Sur 9 Nordeste 0 -- -- 65
2019-09-22 11:00:00 20.1 4 Nordeste 6 Nordeste 0 -- -- 78
2019-09-22 10:00:00 18.5 0 Calma 6 Nordeste 0 -- -- 84
2019-09-22 09:00:00 17.2 0 Calma 9 Nordeste 0 -- -- 88
2019-09-22 08:00:00 16.5 3 Este 7 Nordeste 0 -- -- 90
2019-09-22 07:00:00 16.9 0 Calma 10 Este 0 -- -- 84
2019-09-22 06:00:00 17.5 8 Sudeste 12 Este 0 -- -- 83
2019-09-22 05:00:00 17.6 6 Este 9 Este 0 -- -- 84
2019-09-22 04:00:00 17.9 2 Nordeste 6 Norte 0 -- -- 83
2019-09-22 03:00:00 18.2 4 Noroeste 6 Noroeste 0 -- -- 79
2019-09-22 02:00:00 18.9 3 Norte 9 Noroeste 0 -- -- 74
2019-09-22 01:00:00 19.2 3 Norte 8 Norte 0 -- -- 70
2019-09-22 00:00:00 19.6 6 Norte 9 Norte 0 -- -- 66